createdAt,value
2018-12-21T00:01:02.538Z,34.86
2018-12-21T00:02:12.068Z,34.76
2018-12-21T00:03:21.969Z,34.38
2018-12-21T00:04:31.045Z,34.38
2018-12-21T00:05:40.392Z,34.66
2018-12-21T00:06:49.782Z,34.28
2018-12-21T00:08:01.262Z,34.28
2018-12-21T00:09:10.478Z,34.38
2018-12-21T00:10:20.127Z,34.76
2018-12-21T00:11:30.010Z,34.28
2018-12-21T00:12:39.257Z,34.28
2018-12-21T00:13:48.938Z,34.28
2018-12-21T00:14:58.144Z,34.38
2018-12-21T00:16:08.071Z,34.76
2018-12-21T00:17:17.306Z,34.66
2018-12-21T00:18:26.869Z,34.28
2018-12-21T00:19:36.403Z,34.66
2018-12-21T00:20:46.123Z,34.08
2018-12-21T00:21:55.508Z,34.56
2018-12-21T00:23:05.139Z,34.66
2018-12-21T00:24:14.333Z,34.26
2018-12-21T00:25:23.681Z,34.56
2018-12-21T00:26:32.802Z,34.18
2018-12-21T00:27:42.547Z,34.47
2018-12-21T00:28:52.038Z,34.28
2018-12-21T00:30:02.022Z,34.38
2018-12-21T00:31:11.192Z,34.38
2018-12-21T00:32:20.624Z,34.38
2018-12-21T00:33:30.187Z,34.55
2018-12-21T00:34:39.275Z,34.56
2018-12-21T00:35:48.631Z,34.36
2018-12-21T00:36:57.771Z,34.55
2018-12-21T00:38:08.225Z,34.55
2018-12-21T00:39:16.979Z,34.45
2018-12-21T00:40:26.754Z,34.38
2018-12-21T00:41:36.008Z,34.47
2018-12-21T00:42:45.558Z,34.56
2018-12-21T00:43:55.441Z,34.56
2018-12-21T00:45:05.297Z,34.45
2018-12-21T00:46:14.925Z,34.47
2018-12-21T00:47:24.645Z,34.16
2018-12-21T00:48:33.731Z,34.16
2018-12-21T00:49:42.809Z,34.06
2018-12-21T00:50:52.196Z,34.26
2018-12-21T00:52:01.653Z,34.16
2018-12-21T00:53:11.244Z,34.26
2018-12-21T00:54:20.498Z,34.16
2018-12-21T00:55:29.770Z,34.26
2018-12-21T00:56:39.069Z,34.26
2018-12-21T00:57:48.174Z,34.16
2018-12-21T00:58:58.436Z,34.26
2018-12-21T01:00:07.707Z,34.16
2018-12-21T01:01:16.600Z,34.26
2018-12-21T01:02:26.478Z,34.16
2018-12-21T01:03:35.838Z,34.16
2018-12-21T01:04:45.364Z,34.36
2018-12-21T01:05:54.143Z,34.26
2018-12-21T01:07:03.461Z,34.26
2018-12-21T01:08:12.300Z,34.26
2018-12-21T01:09:21.921Z,34.16
2018-12-21T01:10:31.523Z,34.36
2018-12-21T01:11:41.168Z,34.36
2018-12-21T01:12:50.713Z,34.36
2018-12-21T01:13:59.823Z,34.36
2018-12-21T01:15:09.099Z,34.36
2018-12-21T01:16:18.454Z,34.36
2018-12-21T01:17:28.046Z,34.36
2018-12-21T01:18:37.091Z,34.36
2018-12-21T01:19:46.686Z,34.26
2018-12-21T01:20:56.171Z,34.26
2018-12-21T01:22:05.030Z,34.45
2018-12-21T01:23:14.824Z,34.36
2018-12-21T01:24:24.307Z,34.36
2018-12-21T01:25:33.825Z,34.36
2018-12-21T01:26:42.864Z,34.36
2018-12-21T01:27:52.343Z,34.36
2018-12-21T01:29:01.911Z,34.36
2018-12-21T01:30:11.022Z,34.36
2018-12-21T01:31:20.627Z,34.36
2018-12-21T01:32:29.668Z,34.36
2018-12-21T01:33:39.468Z,34.36
2018-12-21T01:34:48.815Z,34.45
2018-12-21T01:35:58.643Z,34.36
2018-12-21T01:37:07.906Z,34.36
2018-12-21T01:38:17.478Z,34.45
2018-12-21T01:39:27.101Z,34.45
2018-12-21T01:40:36.876Z,34.45
2018-12-21T01:41:46.525Z,34.45
2018-12-21T01:42:55.928Z,33.87
2018-12-21T01:44:04.986Z,33.97
2018-12-21T01:45:15.310Z,33.97
2018-12-21T01:46:24.056Z,34.45
2018-12-21T01:47:33.685Z,33.97
2018-12-21T01:48:42.526Z,34.06
2018-12-21T01:49:51.544Z,34.06
2018-12-21T01:51:00.460Z,34.06
2018-12-21T01:52:09.777Z,33.97
2018-12-21T01:53:19.580Z,34.06
2018-12-21T01:54:29.107Z,34.06
2018-12-21T01:55:38.708Z,34.16
2018-12-21T01:56:48.111Z,34.06
2018-12-21T01:57:57.742Z,34.06
2018-12-21T01:59:07.240Z,33.97
2018-12-21T02:00:16.600Z,34.16
2018-12-21T02:01:25.617Z,34.16
2018-12-21T02:02:34.730Z,34.06
2018-12-21T02:03:44.266Z,34.06
2018-12-21T02:04:53.595Z,34.06
2018-12-21T02:06:02.835Z,34.16
2018-12-21T02:07:12.423Z,33.97
2018-12-21T02:08:21.616Z,34.06
2018-12-21T02:09:30.835Z,34.16
2018-12-21T02:10:40.064Z,34.06
2018-12-21T02:11:49.787Z,34.06
2018-12-21T02:12:59.238Z,34.16
2018-12-21T02:14:08.454Z,34.06
2018-12-21T02:15:17.415Z,34.06
2018-12-21T02:16:26.546Z,34.16
2018-12-21T02:17:36.583Z,34.26
2018-12-21T02:18:46.521Z,33.97
2018-12-21T02:19:55.803Z,34.26
2018-12-21T02:21:04.793Z,34.26
2018-12-21T02:22:14.241Z,34.24
2018-12-21T02:23:23.466Z,34.26
2018-12-21T02:24:33.063Z,34.26
2018-12-21T02:25:42.316Z,34.05
2018-12-21T02:26:51.278Z,33.95
2018-12-21T02:28:00.317Z,34.14
2018-12-21T02:29:09.383Z,34.05
2018-12-21T02:30:18.976Z,34.14
2018-12-21T02:31:28.711Z,34.24
2018-12-21T02:32:38.442Z,34.24
2018-12-21T02:33:47.655Z,34.24
2018-12-21T02:34:57.179Z,34.24
2018-12-21T02:36:06.671Z,33.86
2018-12-21T02:37:16.617Z,34.14
2018-12-21T02:38:26.332Z,34.05
2018-12-21T02:39:35.809Z,33.97
2018-12-21T02:40:45.003Z,33.95
2018-12-21T02:41:55.003Z,34.05
2018-12-21T02:43:04.507Z,34.05
2018-12-21T02:44:14.006Z,34.06
2018-12-21T02:45:23.558Z,34.05
2018-12-21T02:46:33.325Z,33.76
2018-12-21T02:47:42.988Z,33.86
2018-12-21T02:48:52.420Z,33.86
2018-12-21T02:50:02.233Z,33.76
2018-12-21T02:51:11.601Z,33.78
2018-12-21T02:52:21.006Z,33.86
2018-12-21T02:53:30.567Z,33.76
2018-12-21T02:54:40.405Z,33.76
2018-12-21T02:55:49.629Z,33.66
2018-12-21T02:56:59.034Z,33.86
2018-12-21T02:58:08.688Z,33.66
2018-12-21T02:59:18.415Z,33.86
2018-12-21T03:00:28.107Z,33.57
2018-12-21T03:01:37.887Z,33.66
2018-12-21T03:02:47.031Z,33.66
2018-12-21T03:03:56.613Z,33.66
2018-12-21T03:05:06.742Z,33.57
2018-12-21T03:06:16.471Z,33.66
2018-12-21T03:07:25.957Z,33.66
2018-12-21T03:08:35.169Z,33.66
2018-12-21T03:09:44.664Z,33.66
2018-12-21T03:10:54.410Z,33.66
2018-12-21T03:12:04.093Z,33.76
2018-12-21T03:13:13.527Z,33.57
2018-12-21T03:14:23.254Z,33.66
2018-12-21T03:15:33.119Z,33.57
2018-12-21T03:16:42.644Z,33.66
2018-12-21T03:17:52.001Z,33.66
2018-12-21T03:19:01.394Z,33.66
2018-12-21T03:20:11.139Z,33.66
2018-12-21T03:21:20.721Z,33.66
2018-12-21T03:22:29.913Z,33.76
2018-12-21T03:23:39.522Z,33.28
2018-12-21T03:24:49.210Z,33.76
2018-12-21T03:25:59.088Z,33.18
2018-12-21T03:27:08.355Z,33.37
2018-12-21T03:28:17.798Z,33.66
2018-12-21T03:29:27.161Z,33.18
2018-12-21T03:30:36.834Z,33.76
2018-12-21T03:31:47.106Z,33.37
2018-12-21T03:32:57.466Z,33.76
2018-12-21T03:34:07.673Z,33.09
2018-12-21T03:35:17.784Z,33.37
2018-12-21T03:36:28.023Z,33.57
2018-12-21T03:37:38.375Z,33.76
2018-12-21T03:38:47.787Z,33.76
2018-12-21T03:39:57.713Z,33.37
2018-12-21T03:41:07.062Z,33.47
2018-12-21T03:42:16.229Z,33.37
2018-12-21T03:43:25.818Z,33.47
2018-12-21T03:44:35.590Z,33.47
2018-12-21T03:45:45.667Z,33.09
2018-12-21T03:46:54.899Z,33.18
2018-12-21T03:48:04.530Z,33.86
2018-12-21T03:49:14.848Z,33.86
2018-12-21T03:50:24.414Z,33.57
2018-12-21T03:51:34.547Z,33.86
2018-12-21T03:52:44.276Z,33.47
2018-12-21T03:53:53.635Z,33.18
2018-12-21T03:55:02.997Z,33.57
2018-12-21T03:56:12.724Z,33.76
2018-12-21T03:57:22.197Z,33.86
2018-12-21T03:58:31.627Z,33.86
2018-12-21T03:59:41.576Z,33.76
2018-12-21T04:00:50.791Z,33.47
2018-12-21T04:02:00.779Z,33.47
2018-12-21T04:03:10.257Z,33.18
2018-12-21T04:04:19.698Z,33.76
2018-12-21T04:05:28.959Z,33.47
2018-12-21T04:06:38.860Z,33.47
2018-12-21T04:07:48.173Z,33.37
2018-12-21T04:08:57.301Z,33.37
2018-12-21T04:10:06.835Z,33.37
2018-12-21T04:11:16.413Z,33.37
2018-12-21T04:12:25.987Z,33.47
2018-12-21T04:13:35.928Z,33.37
2018-12-21T04:14:45.350Z,33.66
2018-12-21T04:15:54.526Z,33.57
2018-12-21T04:17:04.086Z,33.37
2018-12-21T04:18:13.221Z,33.66
2018-12-21T04:19:23.178Z,33.37
2018-12-21T04:20:32.289Z,33.66
2018-12-21T04:21:41.923Z,33.28
2018-12-21T04:22:51.556Z,33.57
2018-12-21T04:24:00.955Z,33.47
2018-12-21T04:25:09.797Z,33.57
2018-12-21T04:26:19.257Z,33.57
2018-12-21T04:27:28.653Z,33.47
2018-12-21T04:28:38.657Z,33.57
2018-12-21T04:29:48.603Z,33.66
2018-12-21T04:30:58.348Z,33.66
2018-12-21T04:32:08.312Z,33.28
2018-12-21T04:33:17.533Z,33.28
2018-12-21T04:34:26.721Z,33.28
2018-12-21T04:35:36.346Z,33.57
2018-12-21T04:36:45.713Z,33.09
2018-12-21T04:37:55.348Z,33.66
2018-12-21T04:39:05.192Z,33.57
2018-12-21T04:40:14.921Z,33.37
2018-12-21T04:41:24.445Z,33.57
2018-12-21T04:42:34.390Z,33.57
2018-12-21T04:43:44.281Z,33.57
2018-12-21T04:44:54.167Z,33.37
2018-12-21T04:46:03.756Z,33.47
2018-12-21T04:47:13.636Z,33.37
2018-12-21T04:48:23.626Z,33.37
2018-12-21T04:49:33.462Z,33.66
2018-12-21T04:50:43.044Z,33.28
2018-12-21T04:51:52.443Z,33.66
2018-12-21T04:53:02.416Z,33.37
2018-12-21T04:54:12.041Z,33.47
2018-12-21T04:55:21.213Z,33.57
2018-12-21T04:56:31.204Z,33.57
2018-12-21T04:57:40.949Z,33.86
2018-12-21T04:58:50.576Z,33.47
2018-12-21T04:59:59.692Z,33.47
2018-12-21T05:01:09.314Z,33.57
2018-12-21T05:02:19.225Z,33.86
2018-12-21T05:03:28.536Z,33.47
2018-12-21T05:04:37.894Z,33.57
2018-12-21T05:05:47.556Z,33.86
2018-12-21T05:06:57.205Z,33.66
2018-12-21T05:08:15.066Z,33.76
2018-12-21T05:09:24.845Z,33.47
2018-12-21T05:10:34.582Z,33.76
2018-12-21T05:11:44.273Z,33.76
2018-12-21T05:12:53.743Z,33.76
2018-12-21T05:14:03.175Z,33.47
2018-12-21T05:15:15.567Z,33.86
2018-12-21T05:16:25.582Z,33.18
2018-12-21T05:17:34.839Z,33.09
2018-12-21T05:18:44.267Z,33.37
2018-12-21T05:19:53.695Z,33.37
2018-12-21T05:21:03.327Z,33.76
2018-12-21T05:22:12.855Z,33.66
2018-12-21T05:23:22.384Z,33.76
2018-12-21T05:24:31.849Z,33.66
2018-12-21T05:25:41.550Z,33.76
2018-12-21T05:26:50.970Z,33.57
2018-12-21T05:28:00.676Z,33.57
2018-12-21T05:29:10.024Z,33.66
2018-12-21T05:30:19.297Z,33.66
2018-12-21T05:31:31.041Z,33.65
2018-12-21T05:32:40.095Z,33.66
2018-12-21T05:33:49.052Z,33.66
2018-12-21T05:34:59.197Z,33.66
2018-12-21T05:36:08.777Z,33.65
2018-12-21T05:37:18.119Z,33.65
2018-12-21T05:38:27.356Z,33.74
2018-12-21T05:39:36.617Z,33.66
2018-12-21T05:40:46.298Z,33.66
2018-12-21T05:41:55.438Z,33.74
2018-12-21T05:43:06.099Z,33.74
2018-12-21T05:44:15.736Z,33.74
2018-12-21T05:45:25.230Z,33.74
2018-12-21T05:46:34.755Z,33.74
2018-12-21T05:47:44.775Z,33.84
2018-12-21T05:48:54.366Z,33.76
2018-12-21T05:50:03.980Z,33.84
2018-12-21T05:51:13.697Z,33.94
2018-12-21T05:52:23.168Z,33.86
2018-12-21T05:53:32.414Z,33.84
2018-12-21T05:54:41.779Z,33.84
2018-12-21T05:55:51.488Z,33.84
2018-12-21T05:57:01.043Z,33.84
2018-12-21T05:58:10.811Z,33.84
2018-12-21T05:59:20.013Z,34.03
2018-12-21T06:00:29.402Z,33.94
2018-12-21T06:01:38.593Z,33.94
2018-12-21T06:02:48.287Z,33.94
2018-12-21T06:03:58.123Z,33.95
2018-12-21T06:05:07.332Z,34.03
2018-12-21T06:06:16.947Z,33.94
2018-12-21T06:07:26.779Z,34.03
2018-12-21T06:08:36.894Z,34.03
2018-12-21T06:09:46.333Z,33.84
2018-12-21T06:10:55.686Z,34.13
2018-12-21T06:12:05.119Z,34.22
2018-12-21T06:13:14.785Z,34.03
2018-12-21T06:14:23.866Z,34.03
2018-12-21T06:15:33.476Z,34.13
2018-12-21T06:16:42.507Z,34.22
2018-12-21T06:17:52.766Z,34.22
2018-12-21T06:19:02.496Z,34.22
2018-12-21T06:20:11.535Z,34.24
2018-12-21T06:21:20.587Z,34.03
2018-12-21T06:22:29.942Z,34.03
2018-12-21T06:23:39.697Z,33.94
2018-12-21T06:24:48.922Z,34.03
2018-12-21T06:25:58.347Z,34.13
2018-12-21T06:27:07.272Z,34.13
2018-12-21T06:28:16.178Z,34.13
2018-12-21T06:29:26.303Z,34.13
2018-12-21T06:30:35.449Z,34.13
2018-12-21T06:31:44.889Z,34.03
2018-12-21T06:32:54.158Z,34.03
2018-12-21T06:34:03.622Z,34.03
2018-12-21T06:35:13.252Z,34.13
2018-12-21T06:36:22.790Z,34.13
2018-12-21T06:37:32.504Z,34.03
2018-12-21T06:38:41.682Z,33.94
2018-12-21T06:39:51.156Z,34.03
2018-12-21T06:41:00.813Z,34.03
2018-12-21T06:42:10.304Z,34.03
2018-12-21T06:43:19.210Z,34.03
2018-12-21T06:44:28.942Z,34.03
2018-12-21T06:45:38.107Z,33.94
2018-12-21T06:46:47.576Z,33.94
2018-12-21T06:47:57.217Z,33.94
2018-12-21T06:49:06.421Z,33.94
2018-12-21T06:50:18.198Z,33.94
2018-12-21T06:51:27.614Z,33.74
2018-12-21T06:52:37.097Z,34.52
2018-12-21T06:53:46.699Z,33.94
2018-12-21T06:54:56.530Z,34.42
2018-12-21T06:56:06.788Z,33.94
2018-12-21T06:57:16.025Z,34.52
2018-12-21T06:58:25.612Z,34.32
2018-12-21T06:59:35.093Z,34.42
2018-12-21T07:00:44.778Z,34.42
2018-12-21T07:01:53.890Z,34.42
2018-12-21T07:03:03.931Z,34.32
2018-12-21T07:04:21.963Z,34.42
2018-12-21T07:05:30.939Z,34.42
2018-12-21T07:06:40.304Z,34.32
2018-12-21T07:07:49.932Z,34.32
2018-12-21T07:08:59.540Z,34.32
2018-12-21T07:10:09.205Z,34.42
2018-12-21T07:11:19.141Z,34.42
2018-12-21T07:12:28.256Z,34.42
2018-12-21T07:13:37.633Z,34.22
2018-12-21T07:14:47.426Z,34.42
2018-12-21T07:15:56.544Z,34.42
2018-12-21T07:17:06.176Z,34.22
2018-12-21T07:18:16.134Z,34.32
2018-12-21T07:19:26.365Z,34.32
2018-12-21T07:20:35.489Z,34.32
2018-12-21T07:21:44.686Z,34.42
2018-12-21T07:22:54.162Z,34.42
2018-12-21T07:24:03.401Z,34.22
2018-12-21T07:25:12.830Z,34.42
2018-12-21T07:26:22.237Z,34.42
2018-12-21T07:27:31.731Z,34.32
2018-12-21T07:28:41.043Z,34.42
2018-12-21T07:29:50.335Z,34.32
2018-12-21T07:30:59.770Z,34.32
2018-12-21T07:32:09.380Z,34.32
2018-12-21T07:33:18.647Z,34.32
2018-12-21T07:34:28.558Z,34.22
2018-12-21T07:35:38.012Z,34.22
2018-12-21T07:36:47.483Z,34.22
2018-12-21T07:37:57.357Z,34.32
2018-12-21T07:39:06.999Z,34.13
2018-12-21T07:40:16.198Z,34.22
2018-12-21T07:41:25.771Z,34.22
2018-12-21T07:42:35.277Z,34.22
2018-12-21T07:43:44.799Z,34.22
2018-12-21T07:44:54.032Z,34.22
2018-12-21T07:46:04.267Z,34.22
2018-12-21T07:47:14.213Z,34.22
2018-12-21T07:48:24.529Z,34.32
2018-12-21T07:49:34.092Z,34.22
2018-12-21T07:50:43.819Z,34.22
2018-12-21T07:51:53.931Z,34.22
2018-12-21T07:53:03.669Z,34.22
2018-12-21T07:54:13.441Z,34.32
2018-12-21T07:55:22.980Z,34.13
2018-12-21T07:56:32.292Z,34.03
2018-12-21T07:57:42.098Z,34.32
2018-12-21T07:58:59.566Z,34.22
2018-12-21T08:00:08.867Z,34.22
2018-12-21T08:01:18.094Z,34.13
2018-12-21T08:02:28.546Z,34.32
2018-12-21T08:03:38.247Z,34.13
2018-12-21T08:04:47.814Z,33.94
2018-12-21T08:05:58.096Z,34.22
2018-12-21T08:07:07.508Z,34.13
2018-12-21T08:08:17.591Z,34.22
2018-12-21T08:09:27.018Z,34.22
2018-12-21T08:10:36.895Z,34.22
2018-12-21T08:11:46.940Z,34.22
2018-12-21T08:12:57.200Z,34.52
2018-12-21T08:14:06.429Z,34.52
2018-12-21T08:15:16.553Z,34.13
2018-12-21T08:16:25.543Z,34.13
2018-12-21T08:17:35.704Z,34.22
2018-12-21T08:18:45.454Z,34.42
2018-12-21T08:19:54.812Z,34.42
2018-12-21T08:21:04.613Z,34.42
2018-12-21T08:22:14.112Z,34.52
2018-12-21T08:23:23.461Z,34.03
2018-12-21T08:24:33.580Z,34.42
2018-12-21T08:25:43.453Z,34.42
2018-12-21T08:26:53.620Z,34.42
2018-12-21T08:28:03.502Z,34.52
2018-12-21T08:29:13.499Z,34.52
2018-12-21T08:30:23.455Z,34.52
2018-12-21T08:31:33.831Z,34.42
2018-12-21T08:32:43.367Z,34.52
2018-12-21T08:33:52.712Z,34.22
2018-12-21T08:35:02.530Z,34.42
2018-12-21T08:36:11.988Z,34.42
2018-12-21T08:37:21.626Z,34.32
2018-12-21T08:38:31.467Z,34.22
2018-12-21T08:39:41.173Z,34.52
2018-12-21T08:40:50.756Z,34.52
2018-12-21T08:42:00.272Z,34.42
2018-12-21T08:43:09.546Z,34.32
2018-12-21T08:44:19.289Z,34.61
2018-12-21T08:45:28.477Z,34.22
2018-12-21T08:46:37.948Z,34.22
2018-12-21T08:47:47.393Z,34.52
2018-12-21T08:48:57.130Z,34.32
2018-12-21T08:50:06.604Z,34.7
2018-12-21T08:51:16.172Z,34.32
2018-12-21T08:52:26.155Z,35.1
2018-12-21T08:53:35.558Z,34.52
2018-12-21T08:54:45.285Z,34.22
2018-12-21T08:55:55.706Z,35
2018-12-21T08:57:05.211Z,34.32
2018-12-21T08:58:14.866Z,35.19
2018-12-21T08:59:23.922Z,34.52
2018-12-21T09:00:33.446Z,34.52
2018-12-21T09:01:43.214Z,35.1
2018-12-21T09:02:52.540Z,34.32
2018-12-21T09:04:02.065Z,35.1
2018-12-21T09:05:11.963Z,35.1
2018-12-21T09:06:21.376Z,34.42
2018-12-21T09:07:31.109Z,35.1
2018-12-21T09:08:42.172Z,34.52
2018-12-21T09:09:51.318Z,34.52
2018-12-21T09:11:00.515Z,35.1
2018-12-21T09:12:10.278Z,34.52
2018-12-21T09:13:19.684Z,34.42
2018-12-21T09:14:29.204Z,34.52
2018-12-21T09:15:38.229Z,34.42
2018-12-21T09:16:47.637Z,34.42
2018-12-21T09:21:40.304Z,34.52
2018-12-21T09:22:49.981Z,34.52
2018-12-21T09:24:03.405Z,34.61
2018-12-21T09:25:13.113Z,34.52
2018-12-21T09:26:22.329Z,34.61
2018-12-21T09:27:32.017Z,34.7
2018-12-21T09:28:41.199Z,34.52
2018-12-21T09:29:50.376Z,34.52
2018-12-21T09:30:59.071Z,34.52
2018-12-21T09:32:08.259Z,34.61
2018-12-21T09:33:17.449Z,34.52
2018-12-21T09:34:26.900Z,34.52
2018-12-21T09:35:36.372Z,34.7
2018-12-21T09:36:45.836Z,34.72
2018-12-21T09:37:55.567Z,34.8
2018-12-21T09:39:05.031Z,34.7
2018-12-21T09:40:14.478Z,34.82
2018-12-21T09:41:24.034Z,34.9
2018-12-21T09:42:33.711Z,34.7
2018-12-21T09:43:42.921Z,34.72
2018-12-21T09:44:55.090Z,34.8
2018-12-21T09:46:04.677Z,34.8
2018-12-21T09:47:14.178Z,34.82
2018-12-21T09:48:23.361Z,34.8
2018-12-21T09:49:32.801Z,35.21
2018-12-21T09:50:41.742Z,35.28
2018-12-21T09:51:51.081Z,35.19
2018-12-21T09:53:00.499Z,35.28
2018-12-21T09:54:12.628Z,35.19
2018-12-21T09:55:22.356Z,35.1
2018-12-21T09:56:31.805Z,35.28
2018-12-21T09:57:41.356Z,35.19
2018-12-21T09:58:51.060Z,35.19
2018-12-21T10:00:00.751Z,35.19
2018-12-21T10:01:09.943Z,35.11
2018-12-21T10:02:19.148Z,35.19
2018-12-21T10:03:28.576Z,35.21
2018-12-21T10:04:38.010Z,35.19
2018-12-21T10:05:47.222Z,35.19
2018-12-21T10:06:56.409Z,35.1
2018-12-21T10:08:05.849Z,34.9
2018-12-21T10:09:15.556Z,35.21
2018-12-21T10:10:25.021Z,35.28
2018-12-21T10:11:34.455Z,35.1
2018-12-21T10:12:43.634Z,35.28
2018-12-21T10:13:56.046Z,35.1
2018-12-21T10:15:05.723Z,35.19
2018-12-21T10:16:15.420Z,35.28
2018-12-21T10:17:25.108Z,35.19
2018-12-21T10:18:34.690Z,35.28
2018-12-21T10:19:43.653Z,35.28
2018-12-21T10:20:53.610Z,35.28
2018-12-21T10:22:03.562Z,35.19
2018-12-21T10:23:12.643Z,35.19
2018-12-21T10:24:22.124Z,35.28
2018-12-21T10:25:31.556Z,35.1
2018-12-21T10:26:41.002Z,35.19
2018-12-21T10:27:50.681Z,35.19
2018-12-21T10:29:00.114Z,35.1
2018-12-21T10:30:09.298Z,35.1
2018-12-21T10:31:18.747Z,35.1
2018-12-21T10:32:28.006Z,35.19
2018-12-21T10:33:37.506Z,35.1
2018-12-21T10:34:47.008Z,35.19
2018-12-21T10:35:56.197Z,35.19
2018-12-21T10:37:05.626Z,35.11
2018-12-21T10:38:15.171Z,35.1
2018-12-21T10:39:24.889Z,35.1
2018-12-21T10:40:34.339Z,35
2018-12-21T10:41:43.789Z,35
2018-12-21T10:42:53.256Z,35.1
2018-12-21T10:44:02.209Z,35
2018-12-21T10:45:11.413Z,35.1
2018-12-21T10:46:20.863Z,35
2018-12-21T10:47:30.345Z,35.1
2018-12-21T10:48:40.002Z,35
2018-12-21T10:49:49.223Z,35.1
2018-12-21T10:50:58.676Z,35
2018-12-21T10:52:07.626Z,35
2018-12-21T10:53:16.815Z,35
2018-12-21T10:54:29.563Z,35
2018-12-21T10:55:38.765Z,35.11
2018-12-21T10:56:48.193Z,35
2018-12-21T10:57:57.628Z,35.19
2018-12-21T10:59:07.078Z,35.1
2018-12-21T11:00:23.842Z,35.1
2018-12-21T11:01:33.515Z,35
2018-12-21T11:02:42.707Z,35
2018-12-21T11:03:51.901Z,35.19
2018-12-21T11:05:01.101Z,35.11
2018-12-21T11:06:11.096Z,35.1
2018-12-21T11:07:20.020Z,35.1
2018-12-21T11:08:29.471Z,34.9
2018-12-21T11:09:38.940Z,35
2018-12-21T11:10:48.417Z,35
2018-12-21T11:11:57.626Z,35.1
2018-12-21T11:13:07.318Z,35
2018-12-21T11:14:16.507Z,35.1
2018-12-21T11:15:25.700Z,35.19
2018-12-21T11:16:35.366Z,35.1
2018-12-21T11:17:46.487Z,35
2018-12-21T11:18:55.671Z,35
2018-12-21T11:20:04.615Z,35.02
2018-12-21T11:21:14.052Z,35
2018-12-21T11:22:23.258Z,35.1
2018-12-21T11:23:32.467Z,35.02
2018-12-21T11:24:41.693Z,35.1
2018-12-21T11:25:50.871Z,35.1
2018-12-21T11:27:00.647Z,35.1
2018-12-21T11:28:10.137Z,35.02
2018-12-21T11:29:28.156Z,35
2018-12-21T11:30:37.609Z,35
2018-12-21T11:31:46.782Z,35.02
2018-12-21T11:32:56.591Z,35
2018-12-21T11:34:06.552Z,35.02
2018-12-21T11:35:15.998Z,35.21
2018-12-21T11:36:25.184Z,35.1
2018-12-21T11:37:34.753Z,35.1
2018-12-21T11:38:44.242Z,35.21
2018-12-21T11:39:53.671Z,35.02
2018-12-21T11:41:02.871Z,35.11
2018-12-21T11:42:12.558Z,35.11
2018-12-21T11:43:21.981Z,35.11
2018-12-21T11:44:31.926Z,35.1
2018-12-21T11:45:41.119Z,35.02
2018-12-21T11:46:50.301Z,35
2018-12-21T11:47:59.530Z,35.02
2018-12-21T11:49:08.710Z,35.21
2018-12-21T11:50:17.900Z,35.1
2018-12-21T11:51:27.092Z,35.11
2018-12-21T11:52:36.542Z,35.02
2018-12-21T11:53:45.481Z,35.11
2018-12-21T11:54:55.179Z,35.1
2018-12-21T11:56:06.713Z,35.11
2018-12-21T11:57:15.942Z,35.11
2018-12-21T11:58:25.160Z,35.11
2018-12-21T11:59:34.437Z,35.11
2018-12-21T12:00:51.604Z,35.02
2018-12-21T12:02:01.304Z,35.11
2018-12-21T12:03:10.985Z,35.1
2018-12-21T12:04:20.705Z,35.11
2018-12-21T12:05:30.683Z,35.02
2018-12-21T12:06:40.118Z,35.11
2018-12-21T12:07:49.618Z,35.1
2018-12-21T12:09:06.106Z,35.11
2018-12-21T12:10:15.244Z,35.11
2018-12-21T12:11:24.688Z,35.1
2018-12-21T12:12:33.869Z,35.02
2018-12-21T12:13:44.148Z,35.11
2018-12-21T12:14:53.371Z,35.02
2018-12-21T12:16:02.869Z,35.11
2018-12-21T12:17:12.619Z,35.21
2018-12-21T12:18:23.053Z,35.02
2018-12-21T12:19:32.752Z,35.11
2018-12-21T12:20:41.467Z,35.11
2018-12-21T12:21:50.933Z,35.11
2018-12-21T12:22:59.865Z,35.11
2018-12-21T12:24:09.346Z,35.02
2018-12-21T12:25:18.567Z,35.02
2018-12-21T12:26:28.039Z,35.21
2018-12-21T12:27:37.984Z,35.21
2018-12-21T12:28:47.454Z,35.02
2018-12-21T12:29:56.803Z,35.02
2018-12-21T12:31:06.011Z,35.11
2018-12-21T12:32:15.754Z,35.11
2018-12-21T12:33:25.504Z,35.11
2018-12-21T12:34:34.175Z,35.02
2018-12-21T12:35:43.163Z,35.11
2018-12-21T12:36:52.596Z,35.02
2018-12-21T12:38:02.866Z,35.11
2018-12-21T12:39:12.319Z,35.11
2018-12-21T12:40:21.811Z,35.11
2018-12-21T12:41:31.000Z,35.02
2018-12-21T12:42:39.983Z,35.21
2018-12-21T12:43:49.173Z,35.11
2018-12-21T12:44:58.625Z,35.11
2018-12-21T12:46:07.823Z,35.02
2018-12-21T12:47:17.818Z,35.02
2018-12-21T12:48:27.024Z,35.11
2018-12-21T12:49:36.008Z,35.02
2018-12-21T12:50:45.446Z,35.02
2018-12-21T12:51:54.643Z,35.02
2018-12-21T12:53:03.600Z,35.11
2018-12-21T12:54:13.304Z,35.11
2018-12-21T12:55:22.802Z,35.11
2018-12-21T12:56:32.390Z,35.02
2018-12-21T12:57:42.129Z,35.11
2018-12-21T12:58:51.338Z,35.02
2018-12-21T13:00:00.817Z,35.11
2018-12-21T13:01:10.002Z,35.11
2018-12-21T13:02:19.783Z,35.02
2018-12-21T13:03:29.486Z,35.21
2018-12-21T13:04:38.978Z,35.11
2018-12-21T13:05:48.426Z,35.02
2018-12-21T13:06:57.863Z,35.02
2018-12-21T13:08:07.568Z,35.11
2018-12-21T13:09:16.538Z,35.11
2018-12-21T13:10:26.017Z,35.11
2018-12-21T13:11:35.956Z,35.02
2018-12-21T13:12:45.164Z,34.92
2018-12-21T13:13:54.369Z,35.02
2018-12-21T13:15:03.605Z,35.11
2018-12-21T13:16:13.333Z,35.11
2018-12-21T13:17:22.779Z,35.11
2018-12-21T13:18:32.253Z,35.02
2018-12-21T13:19:42.014Z,35.11
2018-12-21T13:20:51.236Z,35.21
2018-12-21T13:22:01.182Z,35.11
2018-12-21T13:23:10.391Z,35.02
2018-12-21T13:24:19.601Z,35.21
2018-12-21T13:25:28.793Z,35.21
2018-12-21T13:26:38.524Z,35.02
2018-12-21T13:27:47.733Z,35.02
2018-12-21T13:28:57.042Z,35.11
2018-12-21T13:30:06.743Z,35.11
2018-12-21T13:31:17.145Z,35.02
2018-12-21T13:32:26.366Z,35.11
2018-12-21T13:33:35.328Z,35.11
2018-12-21T13:34:44.533Z,35.11
2018-12-21T13:35:54.015Z,35.02
2018-12-21T13:37:03.459Z,35.02
2018-12-21T13:38:12.940Z,35.11
2018-12-21T13:39:22.458Z,35.11
2018-12-21T13:40:31.935Z,35.21
2018-12-21T13:41:41.132Z,35.02
2018-12-21T13:42:50.629Z,35.11
2018-12-21T13:43:59.935Z,35.11
2018-12-21T13:45:09.137Z,35.11
2018-12-21T13:46:18.355Z,35.11
2018-12-21T13:47:28.322Z,35.02
2018-12-21T13:48:37.758Z,35.11
2018-12-21T13:49:46.947Z,35.02
2018-12-21T13:50:56.669Z,35.21
2018-12-21T13:52:06.171Z,35.02
2018-12-21T13:53:15.913Z,35.11
2018-12-21T13:54:25.249Z,35.11
2018-12-21T13:55:34.921Z,35.02
2018-12-21T13:56:45.568Z,35.02
2018-12-21T13:57:54.759Z,35.11
2018-12-21T13:59:04.491Z,35.11
2018-12-21T14:00:13.455Z,35.11
2018-12-21T14:01:22.943Z,35.02
2018-12-21T14:02:31.894Z,35.02
2018-12-21T14:03:41.353Z,35.11
2018-12-21T14:04:50.311Z,35.02
2018-12-21T14:05:59.760Z,35.02
2018-12-21T14:07:09.032Z,35.11
2018-12-21T14:08:17.971Z,35.11
2018-12-21T14:09:28.944Z,35.11
2018-12-21T14:10:38.401Z,35.11
2018-12-21T14:11:47.863Z,35.11
2018-12-21T14:12:57.075Z,35.11
2018-12-21T14:14:06.281Z,35.02
2018-12-21T14:15:15.768Z,35.11
2018-12-21T14:16:25.283Z,35.11
2018-12-21T14:17:34.730Z,35.11
2018-12-21T14:18:43.916Z,35.11
2018-12-21T14:19:53.146Z,35.11
2018-12-21T14:21:03.523Z,35.11
2018-12-21T14:22:13.542Z,35.02
2018-12-21T14:23:22.749Z,35.02
2018-12-21T14:24:32.190Z,35.11
2018-12-21T14:25:41.878Z,35.11
2018-12-21T14:26:50.829Z,35.11
2018-12-21T14:27:59.775Z,35.02
2018-12-21T14:29:09.286Z,35.11
2018-12-21T14:30:18.240Z,35.11
2018-12-21T14:31:27.439Z,35.02
2018-12-21T14:32:37.450Z,35.21
2018-12-21T14:33:47.176Z,35.02
2018-12-21T14:34:56.718Z,35.02
2018-12-21T14:36:05.934Z,34.92
2018-12-21T14:37:15.260Z,35.11
2018-12-21T14:38:24.733Z,35.02
2018-12-21T14:39:34.172Z,35.11
2018-12-21T14:40:43.403Z,35.02
2018-12-21T14:41:52.456Z,35.11
2018-12-21T14:43:01.442Z,35.02
2018-12-21T14:44:10.667Z,35.02
2018-12-21T14:45:20.456Z,35.02
2018-12-21T14:46:29.975Z,35.02
2018-12-21T14:47:39.687Z,35.02
2018-12-21T14:48:49.172Z,35.02
2018-12-21T14:49:58.382Z,35.02
2018-12-21T14:51:07.409Z,35.11
2018-12-21T14:52:17.364Z,35.11
2018-12-21T14:53:27.351Z,35.11
2018-12-21T14:54:36.821Z,35.21
2018-12-21T14:55:46.021Z,35.02
2018-12-21T14:56:55.982Z,35.11
2018-12-21T14:58:05.671Z,35.02
2018-12-21T14:59:14.389Z,35.02
2018-12-21T15:00:24.151Z,35.02
2018-12-21T15:01:33.626Z,35.02
2018-12-21T15:02:42.610Z,35.11
2018-12-21T15:03:52.040Z,35.02
2018-12-21T15:05:00.995Z,35.02